sensor_id;sensor_type;location;lat;lon;timestamp;pressure;altitude;pressure_sealevel;temperature;humidity
56630;BME280;42502;40.732;-74.254;2023-07-31T00:01:13;100451.78;;;33.82;33.41
56630;BME280;42502;40.732;-74.254;2023-07-31T00:03:13;100453.84;;;33.82;33.00
56630;BME280;42502;40.732;-74.254;2023-07-31T00:05:15;100455.09;;;33.81;32.91
56630;BME280;42502;40.732;-74.254;2023-07-31T00:07:16;100450.19;;;33.81;33.17
56630;BME280;42502;40.732;-74.254;2023-07-31T00:09:17;100452.22;;;33.81;33.21
56630;BME280;42502;40.732;-74.254;2023-07-31T00:11:18;100442.75;;;33.68;33.04
56630;BME280;42502;40.732;-74.254;2023-07-31T00:13:24;100451.09;;;33.78;33.40
56630;BME280;42502;40.732;-74.254;2023-07-31T00:15:27;100456.47;;;33.76;32.84
56630;BME280;42502;40.732;-74.254;2023-07-31T00:17:28;100459.69;;;33.78;33.00
56630;BME280;42502;40.732;-74.254;2023-07-31T00:19:29;100456.00;;;33.78;32.87
56630;BME280;42502;40.732;-74.254;2023-07-31T00:21:30;100441.50;;;33.69;32.82
56630;BME280;42502;40.732;-74.254;2023-07-31T00:23:31;100458.53;;;33.76;33.03
56630;BME280;42502;40.732;-74.254;2023-07-31T00:25:31;100451.19;;;33.75;32.67
56630;BME280;42502;40.732;-74.254;2023-07-31T00:27:32;100450.38;;;33.74;32.61
56630;BME280;42502;40.732;-74.254;2023-07-31T00:29:33;100461.03;;;33.74;32.67
56630;BME280;42502;40.732;-74.254;2023-07-31T00:31:34;100457.38;;;33.73;32.56
56630;BME280;42502;40.732;-74.254;2023-07-31T00:33:35;100461.09;;;33.70;32.53
56630;BME280;42502;40.732;-74.254;2023-07-31T00:35:37;100465.59;;;33.71;32.23
56630;BME280;42502;40.732;-74.254;2023-07-31T00:37:37;100462.72;;;33.71;32.53
56630;BME280;42502;40.732;-74.254;2023-07-31T00:39:38;100470.94;;;33.69;32.32
56630;BME280;42502;40.732;-74.254;2023-07-31T00:41:39;100464.41;;;33.69;32.69
56630;BME280;42502;40.732;-74.254;2023-07-31T00:43:40;100462.81;;;33.68;32.23
56630;BME280;42502;40.732;-74.254;2023-07-31T00:45:43;100456.00;;;33.61;32.47
56630;BME280;42502;40.732;-74.254;2023-07-31T00:47:44;100473.47;;;33.67;32.02
56630;BME280;42502;40.732;-74.254;2023-07-31T00:49:45;100473.47;;;33.67;32.32
56630;BME280;42502;40.732;-74.254;2023-07-31T00:51:49;100468.28;;;33.62;32.10
56630;BME280;42502;40.732;-74.254;2023-07-31T00:53:50;100466.69;;;33.61;32.16
56630;BME280;42502;40.732;-74.254;2023-07-31T00:55:52;100467.03;;;33.63;32.22
56630;BME280;42502;40.732;-74.254;2023-07-31T00:57:55;100464.16;;;33.63;32.18
56630;BME280;42502;40.732;-74.254;2023-07-31T00:59:56;100472.75;;;33.63;31.73
56630;BME280;42502;40.732;-74.254;2023-07-31T01:01:57;100464.59;;;33.61;31.79
56630;BME280;42502;40.732;-74.254;2023-07-31T01:03:58;100459.00;;;33.58;31.70
56630;BME280;42502;40.732;-74.254;2023-07-31T01:06:20;100464.72;;;33.58;32.17
56630;BME280;42502;40.732;-74.254;2023-07-31T01:10:46;100472.50;;;33.57;31.91
56630;BME280;42502;40.732;-74.254;2023-07-31T01:12:51;100447.00;;;33.46;31.85
56630;BME280;42502;40.732;-74.254;2023-07-31T01:15:02;100472.59;;;33.54;31.94
56630;BME280;42502;40.732;-74.254;2023-07-31T01:17:03;100472.13;;;33.55;31.34
56630;BME280;42502;40.732;-74.254;2023-07-31T01:19:05;100469.72;;;33.54;31.59
56630;BME280;42502;40.732;-74.254;2023-07-31T01:23:51;100487.47;;;33.49;31.67
56630;BME280;42502;40.732;-74.254;2023-07-31T01:26:09;100493.53;;;33.51;32.03
56630;BME280;42502;40.732;-74.254;2023-07-31T01:28:15;100502.50;;;33.53;31.74
56630;BME280;42502;40.732;-74.254;2023-07-31T01:30:25;100494.44;;;33.47;31.61
56630;BME280;42502;40.732;-74.254;2023-07-31T01:32:28;100494.81;;;33.50;31.51
56630;BME280;42502;40.732;-74.254;2023-07-31T01:34:30;100501.00;;;33.48;31.23
56630;BME280;42502;40.732;-74.254;2023-07-31T01:36:31;100499.38;;;33.47;31.34
56630;BME280;42502;40.732;-74.254;2023-07-31T01:38:32;100495.69;;;33.46;31.70
56630;BME280;42502;40.732;-74.254;2023-07-31T01:40:36;100501.88;;;33.45;31.34
56630;BME280;42502;40.732;-74.254;2023-07-31T01:42:37;100503.59;;;33.42;31.54
56630;BME280;42502;40.732;-74.254;2023-07-31T01:44:37;100503.13;;;33.44;31.09
56630;BME280;42502;40.732;-74.254;2023-07-31T01:46:38;100511.72;;;33.44;31.51
56630;BME280;42502;40.732;-74.254;2023-07-31T01:48:39;100511.72;;;33.44;31.53
56630;BME280;42502;40.732;-74.254;2023-07-31T01:50:40;100506.91;;;33.41;31.05
56630;BME280;42502;40.732;-74.254;2023-07-31T01:52:43;100517.06;;;33.42;31.02
56630;BME280;42502;40.732;-74.254;2023-07-31T01:54:43;100517.91;;;33.42;31.33
56630;BME280;42502;40.732;-74.254;2023-07-31T01:56:44;100509.38;;;33.39;31.40
56630;BME280;42502;40.732;-74.254;2023-07-31T01:58:45;100520.38;;;33.40;31.30
56630;BME280;42502;40.732;-74.254;2023-07-31T02:00:46;100514.31;;;33.38;31.38
56630;BME280;42502;40.732;-74.254;2023-07-31T02:02:49;100508.59;;;33.38;32.01
56630;BME280;42502;40.732;-74.254;2023-07-31T02:04:50;100503.31;;;33.37;31.88
56630;BME280;42502;40.732;-74.254;2023-07-31T02:06:53;100493.09;;;33.36;31.84
56630;BME280;42502;40.732;-74.254;2023-07-31T02:08:57;100477.38;;;33.27;31.52
56630;BME280;42502;40.732;-74.254;2023-07-31T02:10:57;100488.38;;;33.29;31.50
56630;BME280;42502;40.732;-74.254;2023-07-31T02:12:58;100489.28;;;33.26;31.40
56630;BME280;42502;40.732;-74.254;2023-07-31T02:14:59;100483.69;;;33.19;30.92
56630;BME280;42502;40.732;-74.254;2023-07-31T02:17:03;100477.34;;;33.11;30.74
56630;BME280;42502;40.732;-74.254;2023-07-31T02:19:07;100490.88;;;33.10;30.62
56630;BME280;42502;40.732;-74.254;2023-07-31T02:21:10;100486.47;;;33.06;30.28
56630;BME280;42502;40.732;-74.254;2023-07-31T02:23:11;100484.97;;;33.01;30.63
56630;BME280;42502;40.732;-74.254;2023-07-31T02:25:12;100489.97;;;32.97;30.32
56630;BME280;42502;40.732;-74.254;2023-07-31T02:27:16;100486.38;;;32.93;30.58
56630;BME280;42502;40.732;-74.254;2023-07-31T02:29:17;100488.09;;;32.90;30.36
56630;BME280;42502;40.732;-74.254;2023-07-31T02:31:21;100491.03;;;32.87;30.15
56630;BME280;42502;40.732;-74.254;2023-07-31T02:33:25;100497.56;;;32.87;30.27
56630;BME280;42502;40.732;-74.254;2023-07-31T02:35:26;100496.00;;;32.83;30.43
56630;BME280;42502;40.732;-74.254;2023-07-31T02:37:27;100487.09;;;32.81;30.39
56630;BME280;42502;40.732;-74.254;2023-07-31T02:39:29;100495.31;;;32.79;30.17
56630;BME280;42502;40.732;-74.254;2023-07-31T02:41:30;100494.13;;;32.76;29.80
56630;BME280;42502;40.732;-74.254;2023-07-31T02:43:31;100495.81;;;32.73;29.90
56630;BME280;42502;40.732;-74.254;2023-07-31T02:45:40;100493.84;;;32.70;30.16
56630;BME280;42502;40.732;-74.254;2023-07-31T02:47:41;100490.28;;;32.66;29.76
56630;BME280;42502;40.732;-74.254;2023-07-31T02:49:42;100494.81;;;32.64;30.02
56630;BME280;42502;40.732;-74.254;2023-07-31T02:51:43;100500.63;;;32.60;29.72
56630;BME280;42502;40.732;-74.254;2023-07-31T02:53:49;100493.28;;;32.59;30.30
56630;BME280;42502;40.732;-74.254;2023-07-31T02:55:50;100497.31;;;32.62;29.67
56630;BME280;42502;40.732;-74.254;2023-07-31T02:57:53;100490.41;;;32.59;29.97
56630;BME280;42502;40.732;-74.254;2023-07-31T02:59:57;100489.19;;;32.60;30.21
56630;BME280;42502;40.732;-74.254;2023-07-31T03:01:58;100490.41;;;32.59;30.02
56630;BME280;42502;40.732;-74.254;2023-07-31T03:03:59;100484.69;;;32.59;30.32
56630;BME280;42502;40.732;-74.254;2023-07-31T03:06:00;100498.66;;;32.57;30.27
56630;BME280;42502;40.732;-74.254;2023-07-31T03:08:01;100499.00;;;32.59;30.20
56630;BME280;42502;40.732;-74.254;2023-07-31T03:10:02;100488.00;;;32.57;30.09
56630;BME280;42502;40.732;-74.254;2023-07-31T03:12:03;100492.94;;;32.57;30.43
56630;BME280;42502;40.732;-74.254;2023-07-31T03:14:06;100494.16;;;32.56;30.20
56630;BME280;42502;40.732;-74.254;2023-07-31T03:16:07;100499.09;;;32.55;30.75
56630;BME280;42502;40.732;-74.254;2023-07-31T03:18:08;100494.59;;;32.54;30.78
56630;BME280;42502;40.732;-74.254;2023-07-31T03:20:14;100492.53;;;32.55;30.42
56630;BME280;42502;40.732;-74.254;2023-07-31T03:22:15;100492.53;;;32.55;30.61
56630;BME280;42502;40.732;-74.254;2023-07-31T03:24:17;100495.06;;;32.53;30.61
56630;BME280;42502;40.732;-74.254;2023-07-31T03:26:17;100498.72;;;32.53;30.48
56630;BME280;42502;40.732;-74.254;2023-07-31T03:28:21;100491.81;;;32.51;30.56
56630;BME280;42502;40.732;-74.254;2023-07-31T03:30:22;100497.53;;;32.51;30.87
56630;BME280;42502;40.732;-74.254;2023-07-31T03:32:23;100498.34;;;32.51;30.66
56630;BME280;42502;40.732;-74.254;2023-07-31T03:34:23;100493.06;;;32.50;30.67
56630;BME280;42502;40.732;-74.254;2023-07-31T03:36:24;100489.47;;;32.46;30.91
56630;BME280;42502;40.732;-74.254;2023-07-31T03:38:25;100495.94;;;32.50;31.03
56630;BME280;42502;40.732;-74.254;2023-07-31T03:40:26;100491.47;;;32.49;31.23
56630;BME280;42502;40.732;-74.254;2023-07-31T03:42:27;100492.69;;;32.48;31.11
56630;BME280;42502;40.732;-74.254;2023-07-31T03:44:28;100498.41;;;32.48;30.74
56630;BME280;42502;40.732;-74.254;2023-07-31T03:46:28;100495.19;;;32.46;31.01
56630;BME280;42502;40.732;-74.254;2023-07-31T03:48:29;100505.41;;;32.47;30.91
56630;BME280;42502;40.732;-74.254;2023-07-31T03:50:30;100502.97;;;32.45;31.19
56630;BME280;42502;40.732;-74.254;2023-07-31T03:52:31;100501.81;;;32.42;31.18
56630;BME280;42502;40.732;-74.254;2023-07-31T03:54:32;100501.00;;;32.42;30.93
56630;BME280;42502;40.732;-74.254;2023-07-31T03:56:33;100505.47;;;32.43;31.11
56630;BME280;42502;40.732;-74.254;2023-07-31T03:58:33;100514.03;;;32.43;31.00
56630;BME280;42502;40.732;-74.254;2023-07-31T04:00:39;100510.47;;;32.39;30.90
56630;BME280;42502;40.732;-74.254;2023-07-31T04:02:40;100507.59;;;32.39;30.84
56630;BME280;42502;40.732;-74.254;2023-07-31T04:04:41;100510.03;;;32.40;31.15
56630;BME280;42502;40.732;-74.254;2023-07-31T04:06:42;100519.84;;;32.39;31.32
56630;BME280;42502;40.732;-74.254;2023-07-31T04:08:46;100524.75;;;32.39;30.96
56630;BME280;42502;40.732;-74.254;2023-07-31T04:10:47;100519.09;;;32.35;30.95
56630;BME280;42502;40.732;-74.254;2023-07-31T04:12:47;100527.25;;;32.37;30.90
56630;BME280;42502;40.732;-74.254;2023-07-31T04:14:48;100526.44;;;32.36;30.83
56630;BME280;42502;40.732;-74.254;2023-07-31T04:16:52;100528.94;;;32.34;30.80
56630;BME280;42502;40.732;-74.254;2023-07-31T04:18:58;100521.97;;;32.35;30.95
56630;BME280;42502;40.732;-74.254;2023-07-31T04:20:59;100519.09;;;32.35;31.27
56630;BME280;42502;40.732;-74.254;2023-07-31T04:23:01;100520.81;;;32.33;30.80
56630;BME280;42502;40.732;-74.254;2023-07-31T04:25:02;100524.91;;;32.32;31.13
56630;BME280;42502;40.732;-74.254;2023-07-31T04:27:03;100521.25;;;32.31;30.99
56630;BME280;42502;40.732;-74.254;2023-07-31T04:29:04;100516.78;;;32.30;31.23
56630;BME280;42502;40.732;-74.254;2023-07-31T04:31:08;100516.78;;;32.30;31.03
56630;BME280;42502;40.732;-74.254;2023-07-31T04:33:09;100505.88;;;32.25;31.19
56630;BME280;42502;40.732;-74.254;2023-07-31T04:35:10;100515.59;;;32.28;31.42
56630;BME280;42502;40.732;-74.254;2023-07-31T04:37:11;100514.44;;;32.25;31.17
56630;BME280;42502;40.732;-74.254;2023-07-31T04:39:12;100512.81;;;32.24;30.87
56630;BME280;42502;40.732;-74.254;2023-07-31T04:41:15;100514.44;;;32.25;31.13
56630;BME280;42502;40.732;-74.254;2023-07-31T04:43:15;100502.63;;;32.23;31.19
56630;BME280;42502;40.732;-74.254;2023-07-31T04:45:16;100504.25;;;32.24;31.34
56630;BME280;42502;40.732;-74.254;2023-07-31T04:47:17;100505.91;;;32.21;31.04
56630;BME280;42502;40.732;-74.254;2023-07-31T04:49:18;100503.06;;;32.21;31.25
56630;BME280;42502;40.732;-74.254;2023-07-31T04:51:19;100498.22;;;32.18;31.16
56630;BME280;42502;40.732;-74.254;2023-07-31T04:53:21;100496.56;;;32.21;31.45
56630;BME280;42502;40.732;-74.254;2023-07-31T04:55:25;100493.75;;;32.17;31.39
56630;BME280;42502;40.732;-74.254;2023-07-31T04:57:26;100499.03;;;32.19;31.25
56630;BME280;42502;40.732;-74.254;2023-07-31T04:59:29;100486.88;;;32.15;31.54
56630;BME280;42502;40.732;-74.254;2023-07-31T05:01:31;100489.75;;;32.15;31.30
56630;BME280;42502;40.732;-74.254;2023-07-31T05:03:32;100491.34;;;32.16;31.05
56630;BME280;42502;40.732;-74.254;2023-07-31T05:05:38;100486.94;;;32.11;31.22
56630;BME280;42502;40.732;-74.254;2023-07-31T05:07:39;100493.84;;;32.14;30.94
56630;BME280;42502;40.732;-74.254;2023-07-31T05:09:40;100493.03;;;32.13;31.56
56630;BME280;42502;40.732;-74.254;2023-07-31T05:11:41;100487.78;;;32.12;31.31
56630;BME280;42502;40.732;-74.254;2023-07-31T05:13:45;100481.28;;;32.08;31.36
56630;BME280;42502;40.732;-74.254;2023-07-31T05:15:46;100471.63;;;32.01;31.20
56630;BME280;42502;40.732;-74.254;2023-07-31T05:17:49;100483.69;;;32.09;31.27
56630;BME280;42502;40.732;-74.254;2023-07-31T05:19:50;100481.28;;;32.08;31.27
56630;BME280;42502;40.732;-74.254;2023-07-31T05:21:51;100472.34;;;32.05;31.13
56630;BME280;42502;40.732;-74.254;2023-07-31T05:23:52;100476.81;;;32.06;31.30
56630;BME280;42502;40.732;-74.254;2023-07-31T05:26:06;100478.06;;;32.05;31.52
56630;BME280;42502;40.732;-74.254;2023-07-31T05:28:07;100471.53;;;32.05;31.19
56630;BME280;42502;40.732;-74.254;2023-07-31T05:30:08;100480.09;;;32.05;31.22
56630;BME280;42502;40.732;-74.254;2023-07-31T05:32:09;100464.38;;;31.97;31.02
56630;BME280;42502;40.732;-74.254;2023-07-31T05:34:10;100465.91;;;32.01;31.22
56630;BME280;42502;40.732;-74.254;2023-07-31T05:36:10;100467.53;;;32.02;31.41
56630;BME280;42502;40.732;-74.254;2023-07-31T05:38:11;100463.47;;;32.00;31.55
56630;BME280;42502;40.732;-74.254;2023-07-31T05:40:12;100461.88;;;31.99;31.16
56630;BME280;42502;40.732;-74.254;2023-07-31T05:42:13;100469.63;;;31.98;31.21
56630;BME280;42502;40.732;-74.254;2023-07-31T05:44:26;100461.06;;;31.98;31.42
56630;BME280;42502;40.732;-74.254;2023-07-31T05:46:27;100452.59;;;31.95;31.46
56630;BME280;42502;40.732;-74.254;2023-07-31T05:48:28;100455.44;;;31.95;31.60
56630;BME280;42502;40.732;-74.254;2023-07-31T05:50:29;100460.75;;;31.93;31.39
56630;BME280;42502;40.732;-74.254;2023-07-31T05:52:32;100459.97;;;31.92;31.37
56630;BME280;42502;40.732;-74.254;2023-07-31T05:54:33;100454.69;;;31.91;31.07
56630;BME280;42502;40.732;-74.254;2023-07-31T05:56:34;100472.63;;;31.91;31.54
56630;BME280;42502;40.732;-74.254;2023-07-31T05:58:35;100475.94;;;31.89;31.18
56630;BME280;42502;40.732;-74.254;2023-07-31T06:00:38;100480.84;;;31.89;31.44
56630;BME280;42502;40.732;-74.254;2023-07-31T06:02:39;100469.03;;;31.87;31.52
56630;BME280;42502;40.732;-74.254;2023-07-31T06:04:40;100471.88;;;31.87;31.08
56630;BME280;42502;40.732;-74.254;2023-07-31T06:06:41;100464.59;;;31.86;31.50
56630;BME280;42502;40.732;-74.254;2023-07-31T06:08:41;100458.88;;;31.86;31.14
56630;BME280;42502;40.732;-74.254;2023-07-31T06:10:42;100451.53;;;31.85;31.19
56630;BME280;42502;40.732;-74.254;2023-07-31T06:12:43;100447.88;;;31.84;31.26
56630;BME280;42502;40.732;-74.254;2023-07-31T06:14:47;100445.47;;;31.83;31.44
56630;BME280;42502;40.732;-74.254;2023-07-31T06:16:48;100430.38;;;31.82;31.35
56630;BME280;42502;40.732;-74.254;2023-07-31T06:18:51;100445.09;;;31.81;31.24
56630;BME280;42502;40.732;-74.254;2023-07-31T06:20:52;100441.88;;;31.79;31.27
56630;BME280;42502;40.732;-74.254;2023-07-31T06:22:54;100436.16;;;31.79;31.61
56630;BME280;42502;40.732;-74.254;2023-07-31T06:24:54;100448.38;;;31.79;31.43
56630;BME280;42502;40.732;-74.254;2023-07-31T06:26:55;100452.13;;;31.76;31.05
56630;BME280;42502;40.732;-74.254;2023-07-31T06:29:00;100453.72;;;31.77;31.12
56630;BME280;42502;40.732;-74.254;2023-07-31T06:31:01;100454.63;;;31.74;31.27
56630;BME280;42502;40.732;-74.254;2023-07-31T06:33:02;100453.81;;;31.74;31.05
56630;BME280;42502;40.732;-74.254;2023-07-31T06:35:03;100461.56;;;31.73;31.30
56630;BME280;42502;40.732;-74.254;2023-07-31T06:37:04;100464.84;;;31.71;31.63
56630;BME280;42502;40.732;-74.254;2023-07-31T06:39:05;100467.34;;;31.69;31.22
56630;BME280;42502;40.732;-74.254;2023-07-31T06:41:06;100472.25;;;31.69;31.40
56630;BME280;42502;40.732;-74.254;2023-07-31T06:43:07;100460.44;;;31.67;31.08
56630;BME280;42502;40.732;-74.254;2023-07-31T06:45:10;100468.59;;;31.68;31.10
56630;BME280;42502;40.732;-74.254;2023-07-31T06:47:12;100460.09;;;31.65;31.14
56630;BME280;42502;40.732;-74.254;2023-07-31T06:49:15;100465.44;;;31.63;31.28
56630;BME280;42502;40.732;-74.254;2023-07-31T06:51:16;100471.53;;;31.65;31.30
56630;BME280;42502;40.732;-74.254;2023-07-31T06:53:17;100455.25;;;31.62;31.29
56630;BME280;42502;40.732;-74.254;2023-07-31T06:55:21;100463.03;;;31.61;31.34
56630;BME280;42502;40.732;-74.254;2023-07-31T06:57:25;100456.06;;;31.62;31.53
56630;BME280;42502;40.732;-74.254;2023-07-31T06:59:28;100460.19;;;31.61;31.28
56630;BME280;42502;40.732;-74.254;2023-07-31T07:01:29;100459.78;;;31.59;31.67
56630;BME280;42502;40.732;-74.254;2023-07-31T07:03:30;100454.06;;;31.59;31.07
56630;BME280;42502;40.732;-74.254;2023-07-31T07:05:31;100465.13;;;31.57;31.61
56630;BME280;42502;40.732;-74.254;2023-07-31T07:07:32;100454.56;;;31.54;31.28
56630;BME280;42502;40.732;-74.254;2023-07-31T07:09:32;100452.09;;;31.56;31.12
56630;BME280;42502;40.732;-74.254;2023-07-31T07:11:33;100455.38;;;31.55;31.36
56630;BME280;42502;40.732;-74.254;2023-07-31T07:13:34;100456.22;;;31.51;31.19
56630;BME280;42502;40.732;-74.254;2023-07-31T07:15:35;100452.59;;;31.51;31.31
56630;BME280;42502;40.732;-74.254;2023-07-31T07:17:36;100452.19;;;31.49;31.03
56630;BME280;42502;40.732;-74.254;2023-07-31T07:19:40;100457.47;;;31.50;31.09
56630;BME280;42502;40.732;-74.254;2023-07-31T07:21:47;100448.19;;;31.46;31.07
56630;BME280;42502;40.732;-74.254;2023-07-31T07:23:48;100453.81;;;31.50;31.50
56630;BME280;42502;40.732;-74.254;2023-07-31T07:25:49;100454.63;;;31.50;31.52
56630;BME280;42502;40.732;-74.254;2023-07-31T07:27:50;100453.47;;;31.48;31.51
56630;BME280;42502;40.732;-74.254;2023-07-31T07:29:54;100446.56;;;31.45;30.89
56630;BME280;42502;40.732;-74.254;2023-07-31T07:31:54;100447.34;;;31.46;31.09
56630;BME280;42502;40.732;-74.254;2023-07-31T07:33:55;100443.34;;;31.43;31.61
56630;BME280;42502;40.732;-74.254;2023-07-31T07:36:00;100445.38;;;31.43;31.65
56630;BME280;42502;40.732;-74.254;2023-07-31T07:38:03;100459.66;;;31.43;31.21
56630;BME280;42502;40.732;-74.254;2023-07-31T07:40:04;100454.75;;;31.43;31.19
56630;BME280;42502;40.732;-74.254;2023-07-31T07:42:06;100450.28;;;31.42;31.42
56630;BME280;42502;40.732;-74.254;2023-07-31T07:44:07;100448.31;;;31.39;31.65
56630;BME280;42502;40.732;-74.254;2023-07-31T07:46:08;100436.69;;;31.26;31.23
56630;BME280;42502;40.732;-74.254;2023-07-31T07:48:09;100458.94;;;31.39;31.25
56630;BME280;42502;40.732;-74.254;2023-07-31T07:50:10;100449.53;;;31.38;31.02
56630;BME280;42502;40.732;-74.254;2023-07-31T07:52:11;100426.13;;;31.27;31.35
56630;BME280;42502;40.732;-74.254;2023-07-31T07:54:12;100440.19;;;31.38;31.48
56630;BME280;42502;40.732;-74.254;2023-07-31T07:56:12;100442.69;;;31.35;31.55
56630;BME280;42502;40.732;-74.254;2023-07-31T07:58:13;100438.63;;;31.33;31.56
56630;BME280;42502;40.732;-74.254;2023-07-31T08:00:14;100432.94;;;31.33;31.59
56630;BME280;42502;40.732;-74.254;2023-07-31T08:02:15;100432.13;;;31.32;31.19
56630;BME280;42502;40.732;-74.254;2023-07-31T08:04:25;100439.06;;;31.31;31.45
56630;BME280;42502;40.732;-74.254;2023-07-31T08:06:26;100440.38;;;31.27;31.11
56630;BME280;42502;40.732;-74.254;2023-07-31T08:08:28;100446.00;;;31.30;31.52
56630;BME280;42502;40.732;-74.254;2023-07-31T08:10:29;100443.16;;;31.30;31.52
56630;BME280;42502;40.732;-74.254;2023-07-31T08:12:30;100428.28;;;31.19;31.32
56630;BME280;42502;40.732;-74.254;2023-07-31T08:14:31;100437.13;;;31.25;31.48
56630;BME280;42502;40.732;-74.254;2023-07-31T08:16:34;100435.53;;;31.24;31.17
56630;BME280;42502;40.732;-74.254;2023-07-31T08:18:35;100442.84;;;31.25;31.47
56630;BME280;42502;40.732;-74.254;2023-07-31T08:20:36;100447.75;;;31.24;31.16
56630;BME280;42502;40.732;-74.254;2023-07-31T08:22:37;100448.97;;;31.23;31.19
56630;BME280;42502;40.732;-74.254;2023-07-31T08:24:38;100450.25;;;31.22;31.63
56630;BME280;42502;40.732;-74.254;2023-07-31T08:26:42;100444.16;;;31.20;31.54
56630;BME280;42502;40.732;-74.254;2023-07-31T08:28:43;100455.56;;;31.20;31.29
56630;BME280;42502;40.732;-74.254;2023-07-31T08:30:44;100451.91;;;31.20;31.53
56630;BME280;42502;40.732;-74.254;2023-07-31T08:32:45;100456.81;;;31.19;31.28
56630;BME280;42502;40.732;-74.254;2023-07-31T08:34:51;100456.06;;;31.15;31.29
56630;BME280;42502;40.732;-74.254;2023-07-31T08:36:52;100467.84;;;31.17;31.50
56630;BME280;42502;40.732;-74.254;2023-07-31T08:38:52;100469.91;;;31.16;31.29
56630;BME280;42502;40.732;-74.254;2023-07-31T08:40:59;100472.81;;;31.13;31.25
56630;BME280;42502;40.732;-74.254;2023-07-31T08:43:00;100464.63;;;31.15;31.25
56630;BME280;42502;40.732;-74.254;2023-07-31T08:45:03;100463.84;;;31.14;31.63
56630;BME280;42502;40.732;-74.254;2023-07-31T08:47:04;100461.44;;;31.09;31.38
56630;BME280;42502;40.732;-74.254;2023-07-31T08:49:05;100454.94;;;31.09;31.57
56630;BME280;42502;40.732;-74.254;2023-07-31T08:51:08;100453.41;;;31.04;31.48
56630;BME280;42502;40.732;-74.254;2023-07-31T08:53:09;100454.94;;;31.09;31.25
56630;BME280;42502;40.732;-74.254;2023-07-31T08:55:15;100467.59;;;31.08;31.17
56630;BME280;42502;40.732;-74.254;2023-07-31T08:57:16;100460.28;;;31.07;31.24
56630;BME280;42502;40.732;-74.254;2023-07-31T08:59:18;100450.13;;;31.06;31.74
56630;BME280;42502;40.732;-74.254;2023-07-31T09:01:22;100439.56;;;31.03;31.70
56630;BME280;42502;40.732;-74.254;2023-07-31T09:03:27;100435.53;;;31.00;31.65
56630;BME280;42502;40.732;-74.254;2023-07-31T09:05:30;100449.75;;;31.04;31.76
56630;BME280;42502;40.732;-74.254;2023-07-31T09:07:31;100442.44;;;31.03;31.78
56630;BME280;42502;40.732;-74.254;2023-07-31T09:09:37;100451.84;;;30.99;31.56
56630;BME280;42502;40.732;-74.254;2023-07-31T09:11:41;100449.00;;;30.99;31.73
56630;BME280;42502;40.732;-74.254;2023-07-31T09:13:42;100440.03;;;30.97;31.77
56630;BME280;42502;40.732;-74.254;2023-07-31T09:15:45;100442.50;;;30.95;31.40
56630;BME280;42502;40.732;-74.254;2023-07-31T09:17:46;100441.72;;;30.95;31.39
56630;BME280;42502;40.732;-74.254;2023-07-31T09:19:47;100436.81;;;30.95;31.23
56630;BME280;42502;40.732;-74.254;2023-07-31T09:21:48;100446.59;;;30.94;31.78
56630;BME280;42502;40.732;-74.254;2023-07-31T09:23:49;100442.16;;;30.93;31.50
56630;BME280;42502;40.732;-74.254;2023-07-31T09:25:54;100446.22;;;30.92;31.46
56630;BME280;42502;40.732;-74.254;2023-07-31T09:28:05;100447.44;;;30.91;31.70
56630;BME280;42502;40.732;-74.254;2023-07-31T09:30:07;100454.78;;;30.92;31.24
56630;BME280;42502;40.732;-74.254;2023-07-31T09:32:16;100450.75;;;30.90;31.64
56630;BME280;42502;40.732;-74.254;2023-07-31T09:34:21;100445.09;;;30.86;31.42
56630;BME280;42502;40.732;-74.254;2023-07-31T09:36:45;100440.25;;;30.83;31.39
56630;BME280;42502;40.732;-74.254;2023-07-31T09:38:46;100452.78;;;30.89;31.28
56630;BME280;42502;40.732;-74.254;2023-07-31T09:40:48;100439.47;;;30.82;31.66
56630;BME280;42502;40.732;-74.254;2023-07-31T09:42:52;100452.03;;;30.85;31.62
56630;BME280;42502;40.732;-74.254;2023-07-31T09:44:53;100448.47;;;30.81;31.47
56630;BME280;42502;40.732;-74.254;2023-07-31T09:46:53;100450.06;;;30.82;31.77
56630;BME280;42502;40.732;-74.254;2023-07-31T09:49:12;100458.59;;;30.82;31.80
56630;BME280;42502;40.732;-74.254;2023-07-31T09:51:16;100455.75;;;30.82;31.32
56630;BME280;42502;40.732;-74.254;2023-07-31T09:53:17;100454.16;;;30.81;31.22
56630;BME280;42502;40.732;-74.254;2023-07-31T09:55:21;100452.16;;;30.78;31.24
56630;BME280;42502;40.732;-74.254;2023-07-31T09:57:22;100457.44;;;30.79;31.29
56630;BME280;42502;40.732;-74.254;2023-07-31T09:59:26;100458.31;;;30.76;31.48
56630;BME280;42502;40.732;-74.254;2023-07-31T10:01:29;100458.31;;;30.76;31.36
56630;BME280;42502;40.732;-74.254;2023-07-31T10:03:31;100463.19;;;30.76;31.35
56630;BME280;42502;40.732;-74.254;2023-07-31T10:05:59;100462.44;;;30.72;31.38
56630;BME280;42502;40.732;-74.254;2023-07-31T10:08:04;100456.75;;;30.72;31.26
56630;BME280;42502;40.732;-74.254;2023-07-31T10:10:07;100466.09;;;30.72;31.50
56630;BME280;42502;40.732;-74.254;2023-07-31T10:12:12;100455.16;;;30.67;31.46
56630;BME280;42502;40.732;-74.254;2023-07-31T10:14:15;100453.94;;;30.68;31.65
56630;BME280;42502;40.732;-74.254;2023-07-31T10:16:16;100460.13;;;30.63;31.26
56630;BME280;42502;40.732;-74.254;2023-07-31T10:18:18;100455.16;;;30.67;31.26
56630;BME280;42502;40.732;-74.254;2023-07-31T10:20:20;100467.00;;;30.65;31.41
56630;BME280;42502;40.732;-74.254;2023-07-31T10:22:21;100463.34;;;30.65;31.73
56630;BME280;42502;40.732;-74.254;2023-07-31T10:24:26;100463.78;;;30.63;31.77
56630;BME280;42502;40.732;-74.254;2023-07-31T10:26:27;100467.91;;;30.59;31.86
56630;BME280;42502;40.732;-74.254;2023-07-31T10:28:29;100475.69;;;30.58;31.73